sensor_id;sensor_type;location;lat;lon;timestamp;temperature;humidity
4673;DHT22;61885;53.560;9.940;2022-12-04T00:01:34;0.40;68.60
4673;DHT22;61885;53.560;9.940;2022-12-04T00:04:06;0.40;68.60
4673;DHT22;61885;53.560;9.940;2022-12-04T00:06:38;0.40;69.00
4673;DHT22;61885;53.560;9.940;2022-12-04T00:09:09;0.50;66.40
4673;DHT22;61885;53.560;9.940;2022-12-04T00:11:42;0.50;66.20
4673;DHT22;61885;53.560;9.940;2022-12-04T00:14:14;0.50;66.00
4673;DHT22;61885;53.560;9.940;2022-12-04T00:16:47;1.00;99.90
4673;DHT22;61885;53.560;9.940;2022-12-04T00:19:23;0.60;65.60
4673;DHT22;61885;53.560;9.940;2022-12-04T00:21:54;0.50;67.70
4673;DHT22;61885;53.560;9.940;2022-12-04T00:24:23;1.50;99.90
4673;DHT22;61885;53.560;9.940;2022-12-04T00:26:58;1.60;97.20
4673;DHT22;61885;53.560;9.940;2022-12-04T00:29:29;1.20;65.60
4673;DHT22;61885;53.560;9.940;2022-12-04T00:32:02;0.80;64.30
4673;DHT22;61885;53.560;9.940;2022-12-04T00:34:33;0.60;72.20
4673;DHT22;61885;53.560;9.940;2022-12-04T00:37:05;-0.10;74.50
4673;DHT22;61885;53.560;9.940;2022-12-04T00:39:34;0.50;73.30
4673;DHT22;61885;53.560;9.940;2022-12-04T00:42:05;0.70;74.90
4673;DHT22;61885;53.560;9.940;2022-12-04T00:44:35;0.60;74.20
4673;DHT22;61885;53.560;9.940;2022-12-04T00:47:10;0.60;70.60
4673;DHT22;61885;53.560;9.940;2022-12-04T00:49:42;0.60;70.60
4673;DHT22;61885;53.560;9.940;2022-12-04T00:52:13;0.60;71.00
4673;DHT22;61885;53.560;9.940;2022-12-04T00:54:46;0.60;70.00
4673;DHT22;61885;53.560;9.940;2022-12-04T00:57:17;0.60;71.10
4673;DHT22;61885;53.560;9.940;2022-12-04T00:59:54;0.50;72.50
4673;DHT22;61885;53.560;9.940;2022-12-04T01:02:30;0.50;71.80
4673;DHT22;61885;53.560;9.940;2022-12-04T01:05:00;0.50;72.50
4673;DHT22;61885;53.560;9.940;2022-12-04T01:07:32;0.60;69.60
4673;DHT22;61885;53.560;9.940;2022-12-04T01:10:02;0.60;72.30
4673;DHT22;61885;53.560;9.940;2022-12-04T01:12:33;0.70;70.50
4673;DHT22;61885;53.560;9.940;2022-12-04T01:15:08;0.60;68.40
4673;DHT22;61885;53.560;9.940;2022-12-04T01:17:45;0.60;68.80
4673;DHT22;61885;53.560;9.940;2022-12-04T01:20:17;0.60;68.10
4673;DHT22;61885;53.560;9.940;2022-12-04T01:22:47;0.60;68.00
4673;DHT22;61885;53.560;9.940;2022-12-04T01:25:18;0.70;66.40
4673;DHT22;61885;53.560;9.940;2022-12-04T01:27:48;0.60;65.70
4673;DHT22;61885;53.560;9.940;2022-12-04T01:30:18;0.60;66.80
4673;DHT22;61885;53.560;9.940;2022-12-04T01:32:50;0.70;68.50
4673;DHT22;61885;53.560;9.940;2022-12-04T01:35:20;0.60;68.70
4673;DHT22;61885;53.560;9.940;2022-12-04T01:37:49;0.70;68.60
4673;DHT22;61885;53.560;9.940;2022-12-04T01:40:19;0.60;67.20
4673;DHT22;61885;53.560;9.940;2022-12-04T01:42:50;0.60;69.60
4673;DHT22;61885;53.560;9.940;2022-12-04T01:45:45;0.60;68.80
4673;DHT22;61885;53.560;9.940;2022-12-04T01:48:23;0.60;70.20
4673;DHT22;61885;53.560;9.940;2022-12-04T01:51:04;0.70;70.50
4673;DHT22;61885;53.560;9.940;2022-12-04T01:53:48;0.70;69.50
4673;DHT22;61885;53.560;9.940;2022-12-04T01:56:22;0.60;72.00
4673;DHT22;61885;53.560;9.940;2022-12-04T01:58:58;0.70;72.10
4673;DHT22;61885;53.560;9.940;2022-12-04T02:01:37;0.70;71.40
4673;DHT22;61885;53.560;9.940;2022-12-04T02:04:14;0.70;71.60
4673;DHT22;61885;53.560;9.940;2022-12-04T02:06:45;0.80;72.10
4673;DHT22;61885;53.560;9.940;2022-12-04T02:09:15;0.80;71.10
4673;DHT22;61885;53.560;9.940;2022-12-04T02:11:51;0.80;72.80
4673;DHT22;61885;53.560;9.940;2022-12-04T02:14:32;0.80;72.10
4673;DHT22;61885;53.560;9.940;2022-12-04T02:17:12;0.70;73.60
4673;DHT22;61885;53.560;9.940;2022-12-04T02:19:59;0.70;73.60
4673;DHT22;61885;53.560;9.940;2022-12-04T02:22:56;0.70;75.00
4673;DHT22;61885;53.560;9.940;2022-12-04T02:25:49;0.80;83.10
4673;DHT22;61885;53.560;9.940;2022-12-04T02:28:52;0.50;77.00
4673;DHT22;61885;53.560;9.940;2022-12-04T02:31:47;0.70;85.00
4673;DHT22;61885;53.560;9.940;2022-12-04T02:34:37;1.00;90.40
4673;DHT22;61885;53.560;9.940;2022-12-04T02:37:13;1.20;91.50
4673;DHT22;61885;53.560;9.940;2022-12-04T02:39:50;1.10;83.90
4673;DHT22;61885;53.560;9.940;2022-12-04T02:42:28;1.20;94.70
4673;DHT22;61885;53.560;9.940;2022-12-04T02:45:07;1.10;77.50
4673;DHT22;61885;53.560;9.940;2022-12-04T02:47:41;1.00;86.30
4673;DHT22;61885;53.560;9.940;2022-12-04T02:50:14;0.90;79.60
4673;DHT22;61885;53.560;9.940;2022-12-04T02:52:52;0.90;86.30
4673;DHT22;61885;53.560;9.940;2022-12-04T02:55:29;1.10;96.40
4673;DHT22;61885;53.560;9.940;2022-12-04T02:58:04;1.10;80.50
4673;DHT22;61885;53.560;9.940;2022-12-04T03:00:39;1.20;86.10
4673;DHT22;61885;53.560;9.940;2022-12-04T03:03:17;1.10;88.50
4673;DHT22;61885;53.560;9.940;2022-12-04T03:05:55;1.10;78.70
4673;DHT22;61885;53.560;9.940;2022-12-04T03:08:30;1.10;87.40
4673;DHT22;61885;53.560;9.940;2022-12-04T03:11:05;1.30;82.00
4673;DHT22;61885;53.560;9.940;2022-12-04T03:13:41;1.30;82.00
4673;DHT22;61885;53.560;9.940;2022-12-04T03:16:21;1.30;76.90
4673;DHT22;61885;53.560;9.940;2022-12-04T03:18:55;1.30;79.90
4673;DHT22;61885;53.560;9.940;2022-12-04T03:21:33;1.30;78.10
4673;DHT22;61885;53.560;9.940;2022-12-04T03:24:07;1.10;78.50
4673;DHT22;61885;53.560;9.940;2022-12-04T03:26:58;1.30;92.50
4673;DHT22;61885;53.560;9.940;2022-12-04T03:29:37;1.30;81.70
4673;DHT22;61885;53.560;9.940;2022-12-04T03:32:12;1.40;81.10
4673;DHT22;61885;53.560;9.940;2022-12-04T03:34:52;1.30;80.00
4673;DHT22;61885;53.560;9.940;2022-12-04T03:37:31;1.40;75.90
4673;DHT22;61885;53.560;9.940;2022-12-04T03:40:07;1.40;81.90
4673;DHT22;61885;53.560;9.940;2022-12-04T03:42:43;1.40;77.00
4673;DHT22;61885;53.560;9.940;2022-12-04T03:45:19;1.50;83.70
4673;DHT22;61885;53.560;9.940;2022-12-04T03:48:06;1.50;78.40
4673;DHT22;61885;53.560;9.940;2022-12-04T03:50:45;1.40;80.90
4673;DHT22;61885;53.560;9.940;2022-12-04T03:53:22;1.50;82.90
4673;DHT22;61885;53.560;9.940;2022-12-04T03:55:59;1.60;72.50
4673;DHT22;61885;53.560;9.940;2022-12-04T03:58:32;1.50;78.30
4673;DHT22;61885;53.560;9.940;2022-12-04T04:01:16;1.50;81.40
4673;DHT22;61885;53.560;9.940;2022-12-04T04:04:13;1.40;74.90
4673;DHT22;61885;53.560;9.940;2022-12-04T04:06:52;1.20;80.50
4673;DHT22;61885;53.560;9.940;2022-12-04T04:09:25;1.20;83.60
4673;DHT22;61885;53.560;9.940;2022-12-04T04:12:05;1.30;91.50
4673;DHT22;61885;53.560;9.940;2022-12-04T04:14:41;1.40;83.10
4673;DHT22;61885;53.560;9.940;2022-12-04T04:17:29;1.50;82.90
4673;DHT22;61885;53.560;9.940;2022-12-04T04:20:19;1.50;89.00
4673;DHT22;61885;53.560;9.940;2022-12-04T04:23:07;1.60;80.70
4673;DHT22;61885;53.560;9.940;2022-12-04T04:25:51;1.40;78.10
4673;DHT22;61885;53.560;9.940;2022-12-04T04:28:29;1.30;83.20
4673;DHT22;61885;53.560;9.940;2022-12-04T04:31:16;1.40;90.10
4673;DHT22;61885;53.560;9.940;2022-12-04T04:33:55;1.30;83.00
4673;DHT22;61885;53.560;9.940;2022-12-04T04:36:34;1.30;90.20
4673;DHT22;61885;53.560;9.940;2022-12-04T04:39:13;1.40;90.00
4673;DHT22;61885;53.560;9.940;2022-12-04T04:41:51;1.40;84.00
4673;DHT22;61885;53.560;9.940;2022-12-04T04:44:31;1.40;87.90
4673;DHT22;61885;53.560;9.940;2022-12-04T04:47:05;1.20;86.40
4673;DHT22;61885;53.560;9.940;2022-12-04T04:49:46;1.20;87.00
4673;DHT22;61885;53.560;9.940;2022-12-04T04:52:24;1.20;89.00
4673;DHT22;61885;53.560;9.940;2022-12-04T04:54:54;1.10;90.90
4673;DHT22;61885;53.560;9.940;2022-12-04T04:57:27;1.00;93.10
4673;DHT22;61885;53.560;9.940;2022-12-04T04:59:57;0.90;94.00
4673;DHT22;61885;53.560;9.940;2022-12-04T05:02:27;1.10;99.90
4673;DHT22;61885;53.560;9.940;2022-12-04T05:04:58;1.30;95.70
4673;DHT22;61885;53.560;9.940;2022-12-04T05:07:31;1.40;94.40
4673;DHT22;61885;53.560;9.940;2022-12-04T05:10:01;1.20;92.10
4673;DHT22;61885;53.560;9.940;2022-12-04T05:12:31;1.30;96.50
4673;DHT22;61885;53.560;9.940;2022-12-04T05:15:02;1.40;94.60
4673;DHT22;61885;53.560;9.940;2022-12-04T05:17:35;1.30;94.70
4673;DHT22;61885;53.560;9.940;2022-12-04T05:20:06;1.40;94.10
4673;DHT22;61885;53.560;9.940;2022-12-04T05:22:39;1.30;93.50
4673;DHT22;61885;53.560;9.940;2022-12-04T05:25:09;1.40;97.20
4673;DHT22;61885;53.560;9.940;2022-12-04T05:27:43;1.30;91.70
4673;DHT22;61885;53.560;9.940;2022-12-04T05:30:13;1.20;93.30
4673;DHT22;61885;53.560;9.940;2022-12-04T05:32:43;1.20;93.80
4673;DHT22;61885;53.560;9.940;2022-12-04T05:35:14;1.20;93.60
4673;DHT22;61885;53.560;9.940;2022-12-04T05:37:56;1.50;97.20
4673;DHT22;61885;53.560;9.940;2022-12-04T05:40:32;1.30;94.70
4673;DHT22;61885;53.560;9.940;2022-12-04T05:43:03;1.40;97.60
4673;DHT22;61885;53.560;9.940;2022-12-04T05:45:33;1.40;95.20
4673;DHT22;61885;53.560;9.940;2022-12-04T05:48:04;1.50;96.80
4673;DHT22;61885;53.560;9.940;2022-12-04T05:50:34;1.50;92.50
4673;DHT22;61885;53.560;9.940;2022-12-04T05:53:10;1.40;95.00
4673;DHT22;61885;53.560;9.940;2022-12-04T05:55:39;1.40;94.00
4673;DHT22;61885;53.560;9.940;2022-12-04T05:58:11;1.50;95.50
4673;DHT22;61885;53.560;9.940;2022-12-04T06:00:42;1.50;91.40
4673;DHT22;61885;53.560;9.940;2022-12-04T06:03:15;1.50;91.80
4673;DHT22;61885;53.560;9.940;2022-12-04T06:05:45;1.50;90.90
4673;DHT22;61885;53.560;9.940;2022-12-04T06:08:23;1.40;93.90
4673;DHT22;61885;53.560;9.940;2022-12-04T06:10:53;1.40;94.80
4673;DHT22;61885;53.560;9.940;2022-12-04T06:13:24;1.30;94.60
4673;DHT22;61885;53.560;9.940;2022-12-04T06:15:55;1.40;95.30
4673;DHT22;61885;53.560;9.940;2022-12-04T06:18:24;1.40;94.90
4673;DHT22;61885;53.560;9.940;2022-12-04T06:20:56;1.30;95.60
4673;DHT22;61885;53.560;9.940;2022-12-04T06:23:32;1.40;96.80
4673;DHT22;61885;53.560;9.940;2022-12-04T06:26:02;1.30;96.20
4673;DHT22;61885;53.560;9.940;2022-12-04T06:28:33;1.20;96.00
4673;DHT22;61885;53.560;9.940;2022-12-04T06:31:07;1.40;98.80
4673;DHT22;61885;53.560;9.940;2022-12-04T06:33:42;1.50;96.30
4673;DHT22;61885;53.560;9.940;2022-12-04T06:36:16;1.40;93.20
4673;DHT22;61885;53.560;9.940;2022-12-04T06:38:50;1.20;94.00
4673;DHT22;61885;53.560;9.940;2022-12-04T06:41:23;1.20;97.60
4673;DHT22;61885;53.560;9.940;2022-12-04T06:43:54;1.20;97.70
4673;DHT22;61885;53.560;9.940;2022-12-04T06:46:26;1.20;99.90
4673;DHT22;61885;53.560;9.940;2022-12-04T06:48:58;1.30;99.90
4673;DHT22;61885;53.560;9.940;2022-12-04T06:51:33;1.50;97.60
4673;DHT22;61885;53.560;9.940;2022-12-04T06:54:09;1.40;98.30
4673;DHT22;61885;53.560;9.940;2022-12-04T06:56:41;1.30;98.90
4673;DHT22;61885;53.560;9.940;2022-12-04T06:59:10;1.40;99.90
4673;DHT22;61885;53.560;9.940;2022-12-04T07:01:41;1.60;99.90
4673;DHT22;61885;53.560;9.940;2022-12-04T07:04:12;1.60;99.90
4673;DHT22;61885;53.560;9.940;2022-12-04T07:06:41;1.70;95.90
4673;DHT22;61885;53.560;9.940;2022-12-04T07:09:15;1.50;94.20
4673;DHT22;61885;53.560;9.940;2022-12-04T07:11:45;1.40;95.80
4673;DHT22;61885;53.560;9.940;2022-12-04T07:14:15;1.30;98.30
4673;DHT22;61885;53.560;9.940;2022-12-04T07:16:45;1.30;99.50
4673;DHT22;61885;53.560;9.940;2022-12-04T07:19:18;1.30;99.60
4673;DHT22;61885;53.560;9.940;2022-12-04T07:21:50;1.30;99.30
4673;DHT22;61885;53.560;9.940;2022-12-04T07:24:24;1.30;99.90
4673;DHT22;61885;53.560;9.940;2022-12-04T07:26:53;1.40;99.90
4673;DHT22;61885;53.560;9.940;2022-12-04T07:29:26;1.40;99.90
4673;DHT22;61885;53.560;9.940;2022-12-04T07:31:55;1.40;99.90
4673;DHT22;61885;53.560;9.940;2022-12-04T07:34:25;1.30;99.90
4673;DHT22;61885;53.560;9.940;2022-12-04T07:36:59;1.40;99.90
4673;DHT22;61885;53.560;9.940;2022-12-04T07:39:31;1.20;99.90
4673;DHT22;61885;53.560;9.940;2022-12-04T07:42:01;1.40;99.90
4673;DHT22;61885;53.560;9.940;2022-12-04T07:44:32;1.70;99.90
4673;DHT22;61885;53.560;9.940;2022-12-04T07:47:03;1.60;99.90
4673;DHT22;61885;53.560;9.940;2022-12-04T07:49:33;2.20;99.90
4673;DHT22;61885;53.560;9.940;2022-12-04T07:52:03;2.60;86.90
4673;DHT22;61885;53.560;9.940;2022-12-04T07:54:37;2.20;73.80
4673;DHT22;61885;53.560;9.940;2022-12-04T07:57:07;1.70;84.80
4673;DHT22;61885;53.560;9.940;2022-12-04T07:59:40;1.60;92.20
4673;DHT22;61885;53.560;9.940;2022-12-04T08:02:11;1.50;96.20
4673;DHT22;61885;53.560;9.940;2022-12-04T08:04:42;1.50;98.40
4673;DHT22;61885;53.560;9.940;2022-12-04T08:07:11;1.50;99.90
4673;DHT22;61885;53.560;9.940;2022-12-04T08:09:44;1.60;99.90
4673;DHT22;61885;53.560;9.940;2022-12-04T08:12:16;1.60;99.90
4673;DHT22;61885;53.560;9.940;2022-12-04T08:14:48;1.60;99.30
4673;DHT22;61885;53.560;9.940;2022-12-04T08:17:19;1.60;99.70
4673;DHT22;61885;53.560;9.940;2022-12-04T08:19:50;1.60;99.90
4673;DHT22;61885;53.560;9.940;2022-12-04T08:22:21;1.70;99.50
4673;DHT22;61885;53.560;9.940;2022-12-04T08:24:56;1.60;99.10
4673;DHT22;61885;53.560;9.940;2022-12-04T08:27:28;1.80;99.80
4673;DHT22;61885;53.560;9.940;2022-12-04T08:30:00;1.80;97.30
4673;DHT22;61885;53.560;9.940;2022-12-04T08:32:30;1.80;96.90
4673;DHT22;61885;53.560;9.940;2022-12-04T08:34:59;1.70;97.40
4673;DHT22;61885;53.560;9.940;2022-12-04T08:37:35;1.70;99.90
4673;DHT22;61885;53.560;9.940;2022-12-04T08:40:10;1.70;99.90
4673;DHT22;61885;53.560;9.940;2022-12-04T08:42:43;1.70;99.90
4673;DHT22;61885;53.560;9.940;2022-12-04T08:45:15;1.70;99.90
4673;DHT22;61885;53.560;9.940;2022-12-04T08:47:45;1.70;99.90
4673;DHT22;61885;53.560;9.940;2022-12-04T08:50:17;1.70;99.90
4673;DHT22;61885;53.560;9.940;2022-12-04T08:52:47;1.80;99.90
4673;DHT22;61885;53.560;9.940;2022-12-04T08:55:19;1.80;99.70
4673;DHT22;61885;53.560;9.940;2022-12-04T08:57:50;1.90;99.90
4673;DHT22;61885;53.560;9.940;2022-12-04T09:00:24;1.90;99.90
4673;DHT22;61885;53.560;9.940;2022-12-04T09:02:55;1.90;99.90
4673;DHT22;61885;53.560;9.940;2022-12-04T09:05:24;1.90;99.90
4673;DHT22;61885;53.560;9.940;2022-12-04T09:07:54;2.00;99.10
4673;DHT22;61885;53.560;9.940;2022-12-04T09:10:26;2.00;99.90
4673;DHT22;61885;53.560;9.940;2022-12-04T09:12:56;2.10;98.80
4673;DHT22;61885;53.560;9.940;2022-12-04T09:15:30;2.10;96.70
4673;DHT22;61885;53.560;9.940;2022-12-04T09:18:01;2.10;95.80
4673;DHT22;61885;53.560;9.940;2022-12-04T09:20:30;2.00;95.80
4673;DHT22;61885;53.560;9.940;2022-12-04T09:23:04;2.00;96.20
4673;DHT22;61885;53.560;9.940;2022-12-04T09:25:38;2.00;96.50
4673;DHT22;61885;53.560;9.940;2022-12-04T09:28:07;2.10;95.90
4673;DHT22;61885;53.560;9.940;2022-12-04T09:30:40;2.10;95.90
4673;DHT22;61885;53.560;9.940;2022-12-04T09:33:11;2.20;94.90
4673;DHT22;61885;53.560;9.940;2022-12-04T09:35:40;2.20;94.60
4673;DHT22;61885;53.560;9.940;2022-12-04T09:38:10;2.20;94.40
4673;DHT22;61885;53.560;9.940;2022-12-04T09:40:48;2.20;94.40
4673;DHT22;61885;53.560;9.940;2022-12-04T09:43:25;2.30;93.80
4673;DHT22;61885;53.560;9.940;2022-12-04T09:46:01;2.30;92.90
4673;DHT22;61885;53.560;9.940;2022-12-04T09:48:36;2.30;91.70
4673;DHT22;61885;53.560;9.940;2022-12-04T09:51:09;2.30;91.40
4673;DHT22;61885;53.560;9.940;2022-12-04T09:53:46;2.30;92.50
4673;DHT22;61885;53.560;9.940;2022-12-04T09:56:23;2.30;92.60
4673;DHT22;61885;53.560;9.940;2022-12-04T09:58:57;2.40;92.50
4673;DHT22;61885;53.560;9.940;2022-12-04T10:01:33;2.40;91.80
4673;DHT22;61885;53.560;9.940;2022-12-04T10:04:04;2.40;92.30
4673;DHT22;61885;53.560;9.940;2022-12-04T10:06:40;2.40;91.80
4673;DHT22;61885;53.560;9.940;2022-12-04T10:09:16;2.50;92.10
4673;DHT22;61885;53.560;9.940;2022-12-04T10:11:58;2.50;91.20
4673;DHT22;61885;53.560;9.940;2022-12-04T10:17:43;2.60;89.30
4673;DHT22;61885;53.560;9.940;2022-12-04T10:20:29;2.70;89.90
4673;DHT22;61885;53.560;9.940;2022-12-04T10:23:13;2.70;87.60
4673;DHT22;61885;53.560;9.940;2022-12-04T10:25:49;2.70;88.20
4673;DHT22;61885;53.560;9.940;2022-12-04T10:28:31;2.70;88.70
4673;DHT22;61885;53.560;9.940;2022-12-04T10:31:19;2.80;93.00
4673;DHT22;61885;53.560;9.940;2022-12-04T10:33:52;3.50;99.90
4673;DHT22;61885;53.560;9.940;2022-12-04T10:36:29;3.80;78.80
4673;DHT22;61885;53.560;9.940;2022-12-04T10:39:01;3.70;60.50
4673;DHT22;61885;53.560;9.940;2022-12-04T10:41:42;3.40;62.20
4673;DHT22;61885;53.560;9.940;2022-12-04T10:44:19;3.10;67.50
4673;DHT22;61885;53.560;9.940;2022-12-04T10:46:50;2.90;73.20
4673;DHT22;61885;53.560;9.940;2022-12-04T10:49:26;2.90;75.60
4673;DHT22;61885;53.560;9.940;2022-12-04T10:52:02;2.90;76.60
4673;DHT22;61885;53.560;9.940;2022-12-04T10:54:34;3.00;75.00
4673;DHT22;61885;53.560;9.940;2022-12-04T10:57:07;2.90;74.90
4673;DHT22;61885;53.560;9.940;2022-12-04T10:59:54;2.90;75.20
4673;DHT22;61885;53.560;9.940;2022-12-04T11:02:34;3.00;77.50
4673;DHT22;61885;53.560;9.940;2022-12-04T11:05:24;3.00;75.60
4673;DHT22;61885;53.560;9.940;2022-12-04T11:07:55;3.10;76.00
4673;DHT22;61885;53.560;9.940;2022-12-04T11:10:40;3.10;73.50
4673;DHT22;61885;53.560;9.940;2022-12-04T11:13:16;3.10;72.20
4673;DHT22;61885;53.560;9.940;2022-12-04T11:15:53;3.10;73.30
4673;DHT22;61885;53.560;9.940;2022-12-04T11:18:34;3.00;74.00
4673;DHT22;61885;53.560;9.940;2022-12-04T11:21:23;3.00;76.20
4673;DHT22;61885;53.560;9.940;2022-12-04T11:23:56;3.20;90.60
4673;DHT22;61885;53.560;9.940;2022-12-04T11:26:34;3.10;74.00
4673;DHT22;61885;53.560;9.940;2022-12-04T11:29:42;3.00;76.40
4673;DHT22;61885;53.560;9.940;2022-12-04T11:32:24;3.10;75.80
4673;DHT22;61885;53.560;9.940;2022-12-04T11:35:10;2.90;76.40
4673;DHT22;61885;53.560;9.940;2022-12-04T11:37:41;2.90;77.20
4673;DHT22;61885;53.560;9.940;2022-12-04T11:40:19;2.90;78.10
4673;DHT22;61885;53.560;9.940;2022-12-04T11:43:01;3.00;79.30
4673;DHT22;61885;53.560;9.940;2022-12-04T11:45:32;3.00;77.10
4673;DHT22;61885;53.560;9.940;2022-12-04T11:48:31;3.00;76.60
4673;DHT22;61885;53.560;9.940;2022-12-04T11:51:08;3.00;77.70
4673;DHT22;61885;53.560;9.940;2022-12-04T11:53:46;3.00;76.90
4673;DHT22;61885;53.560;9.940;2022-12-04T11:56:24;3.00;77.30
4673;DHT22;61885;53.560;9.940;2022-12-04T12:02:33;3.00;78.00
4673;DHT22;61885;53.560;9.940;2022-12-04T12:05:28;3.00;78.10
4673;DHT22;61885;53.560;9.940;2022-12-04T12:08:07;3.10;77.90
4673;DHT22;61885;53.560;9.940;2022-12-04T12:10:52;3.10;77.10
4673;DHT22;61885;53.560;9.940;2022-12-04T12:13:33;3.10;76.00
4673;DHT22;61885;53.560;9.940;2022-12-04T12:16:11;3.10;74.80
4673;DHT22;61885;53.560;9.940;2022-12-04T12:18:57;3.10;75.90
4673;DHT22;61885;53.560;9.940;2022-12-04T12:21:40;3.10;77.10
4673;DHT22;61885;53.560;9.940;2022-12-04T12:24:23;3.10;78.40
4673;DHT22;61885;53.560;9.940;2022-12-04T12:27:24;3.10;76.80
4673;DHT22;61885;53.560;9.940;2022-12-04T12:30:00;2.80;78.30
4673;DHT22;61885;53.560;9.940;2022-12-04T12:32:55;3.10;79.10
4673;DHT22;61885;53.560;9.940;2022-12-04T12:35:34;3.10;78.90
4673;DHT22;61885;53.560;9.940;2022-12-04T12:38:15;3.10;80.00
4673;DHT22;61885;53.560;9.940;2022-12-04T12:40:49;3.20;80.70
4673;DHT22;61885;53.560;9.940;2022-12-04T12:43:23;3.20;80.20
4673;DHT22;61885;53.560;9.940;2022-12-04T12:46:05;3.20;79.90
4673;DHT22;61885;53.560;9.940;2022-12-04T12:48:48;3.20;79.70
4673;DHT22;61885;53.560;9.940;2022-12-04T12:51:27;3.20;80.10
4673;DHT22;61885;53.560;9.940;2022-12-04T12:54:12;3.20;80.60
4673;DHT22;61885;53.560;9.940;2022-12-04T12:56:50;3.20;81.60
4673;DHT22;61885;53.560;9.940;2022-12-04T12:59:28;3.30;81.70
4673;DHT22;61885;53.560;9.940;2022-12-04T13:02:02;3.20;81.60
4673;DHT22;61885;53.560;9.940;2022-12-04T13:04:37;3.20;82.00
4673;DHT22;61885;53.560;9.940;2022-12-04T13:07:22;3.20;85.00
4673;DHT22;61885;53.560;9.940;2022-12-04T13:10:02;3.20;86.50
4673;DHT22;61885;53.560;9.940;2022-12-04T13:12:38;3.20;87.90
4673;DHT22;61885;53.560;9.940;2022-12-04T13:15:14;3.30;88.80
4673;DHT22;61885;53.560;9.940;2022-12-04T13:17:46;3.30;90.60
4673;DHT22;61885;53.560;9.940;2022-12-04T13:20:22;3.30;90.40
4673;DHT22;61885;53.560;9.940;2022-12-04T13:23:15;3.30;89.70
4673;DHT22;61885;53.560;9.940;2022-12-04T13:25:57;3.40;91.00
4673;DHT22;61885;53.560;9.940;2022-12-04T13:28:40;3.30;90.40
4673;DHT22;61885;53.560;9.940;2022-12-04T13:31:24;3.40;91.10
4673;DHT22;61885;53.560;9.940;2022-12-04T13:34:23;3.40;91.40
4673;DHT22;61885;53.560;9.940;2022-12-04T13:37:17;3.40;90.90
4673;DHT22;61885;53.560;9.940;2022-12-04T13:40:14;3.50;92.20
4673;DHT22;61885;53.560;9.940;2022-12-04T13:43:30;3.50;91.70
4673;DHT22;61885;53.560;9.940;2022-12-04T13:46:19;3.50;92.20
4673;DHT22;61885;53.560;9.940;2022-12-04T13:48:51;3.50;92.50
4673;DHT22;61885;53.560;9.940;2022-12-04T13:51:24;3.50;92.40
4673;DHT22;61885;53.560;9.940;2022-12-04T13:54:22;3.50;93.80
4673;DHT22;61885;53.560;9.940;2022-12-04T13:56:54;3.40;94.40
4673;DHT22;61885;53.560;9.940;2022-12-04T13:59:37;3.50;95.20
4673;DHT22;61885;53.560;9.940;2022-12-04T14:02:23;3.50;96.00
4673;DHT22;61885;53.560;9.940;2022-12-04T14:05:01;3.50;96.90
4673;DHT22;61885;53.560;9.940;2022-12-04T14:07:33;3.50;97.60
4673;DHT22;61885;53.560;9.940;2022-12-04T14:10:06;3.50;97.50
4673;DHT22;61885;53.560;9.940;2022-12-04T14:12:41;3.50;99.10
4673;DHT22;61885;53.560;9.940;2022-12-04T14:15:22;3.60;98.70
4673;DHT22;61885;53.560;9.940;2022-12-04T14:17:58;3.60;99.80
4673;DHT22;61885;53.560;9.940;2022-12-04T14:20:30;3.60;99.90
4673;DHT22;61885;53.560;9.940;2022-12-04T14:23:25;3.60;99.90
4673;DHT22;61885;53.560;9.940;2022-12-04T14:25:57;3.50;99.90
4673;DHT22;61885;53.560;9.940;2022-12-04T14:28:40;3.60;99.90
4673;DHT22;61885;53.560;9.940;2022-12-04T14:31:31;3.60;99.90
4673;DHT22;61885;53.560;9.940;2022-12-04T14:34:20;3.60;99.90
4673;DHT22;61885;53.560;9.940;2022-12-04T14:36:55;3.60;99.90
4673;DHT22;61885;53.560;9.940;2022-12-04T14:39:30;3.60;99.90
4673;DHT22;61885;53.560;9.940;2022-12-04T14:42:05;3.60;99.90
4673;DHT22;61885;53.560;9.940;2022-12-04T14:44:37;3.60;99.90
4673;DHT22;61885;53.560;9.940;2022-12-04T14:47:35;3.70;99.90
4673;DHT22;61885;53.560;9.940;2022-12-04T14:53:15;3.90;99.90
4673;DHT22;61885;53.560;9.940;2022-12-04T14:55:55;3.70;99.90
4673;DHT22;61885;53.560;9.940;2022-12-04T14:58:32;3.60;99.90
4673;DHT22;61885;53.560;9.940;2022-12-04T15:01:18;3.60;99.90
4673;DHT22;61885;53.560;9.940;2022-12-04T15:03:54;3.70;99.90
4673;DHT22;61885;53.560;9.940;2022-12-04T15:06:26;3.70;99.90
4673;DHT22;61885;53.560;9.940;2022-12-04T15:08:58;3.60;99.90
4673;DHT22;61885;53.560;9.940;2022-12-04T15:11:50;3.60;99.90
4673;DHT22;61885;53.560;9.940;2022-12-04T15:14:45;3.70;99.90
4673;DHT22;61885;53.560;9.940;2022-12-04T15:17:18;3.70;99.90
4673;DHT22;61885;53.560;9.940;2022-12-04T15:19:51;3.70;99.90
4673;DHT22;61885;53.560;9.940;2022-12-04T15:22:24;3.70;99.90
4673;DHT22;61885;53.560;9.940;2022-12-04T15:24:56;3.70;99.90
4673;DHT22;61885;53.560;9.940;2022-12-04T15:27:27;3.70;99.90
4673;DHT22;61885;53.560;9.940;2022-12-04T15:30:03;3.60;99.90
4673;DHT22;61885;53.560;9.940;2022-12-04T15:32:34;3.70;99.90
4673;DHT22;61885;53.560;9.940;2022-12-04T15:35:11;3.70;99.90
4673;DHT22;61885;53.560;9.940;2022-12-04T15:37:44;3.70;99.90
4673;DHT22;61885;53.560;9.940;2022-12-04T15:40:21;4.10;99.90
4673;DHT22;61885;53.560;9.940;2022-12-04T15:42:53;3.90;99.90
4673;DHT22;61885;53.560;9.940;2022-12-04T15:45:30;3.80;99.90
4673;DHT22;61885;53.560;9.940;2022-12-04T15:48:01;3.80;99.90
4673;DHT22;61885;53.560;9.940;2022-12-04T15:50:34;3.80;99.90
4673;DHT22;61885;53.560;9.940;2022-12-04T15:53:07;3.80;99.90
4673;DHT22;61885;53.560;9.940;2022-12-04T15:55:47;3.80;99.90
4673;DHT22;61885;53.560;9.940;2022-12-04T15:58:20;3.80;99.90
4673;DHT22;61885;53.560;9.940;2022-12-04T16:00:53;3.80;99.90
4673;DHT22;61885;53.560;9.940;2022-12-04T16:03:29;3.80;99.90
4673;DHT22;61885;53.560;9.940;2022-12-04T16:06:12;3.80;99.90
4673;DHT22;61885;53.560;9.940;2022-12-04T16:08:45;3.80;99.90
4673;DHT22;61885;53.560;9.940;2022-12-04T16:11:29;3.90;99.90
4673;DHT22;61885;53.560;9.940;2022-12-04T16:14:14;3.90;99.90
4673;DHT22;61885;53.560;9.940;2022-12-04T16:16:48;3.90;99.90
4673;DHT22;61885;53.560;9.940;2022-12-04T16:19:26;3.90;99.90
4673;DHT22;61885;53.560;9.940;2022-12-04T16:22:01;3.90;99.90
4673;DHT22;61885;53.560;9.940;2022-12-04T16:24:32;3.90;99.90
4673;DHT22;61885;53.560;9.940;2022-12-04T16:27:05;3.90;99.90
4673;DHT22;61885;53.560;9.940;2022-12-04T16:29:38;3.90;99.90
4673;DHT22;61885;53.560;9.940;2022-12-04T16:32:22;3.90;99.90
4673;DHT22;61885;53.560;9.940;2022-12-04T16:34:55;3.90;99.90
4673;DHT22;61885;53.560;9.940;2022-12-04T16:37:28;3.90;99.90
4673;DHT22;61885;53.560;9.940;2022-12-04T16:39:58;4.00;99.90
4673;DHT22;61885;53.560;9.940;2022-12-04T16:42:34;4.10;99.90
4673;DHT22;61885;53.560;9.940;2022-12-04T16:45:17;4.00;99.90
4673;DHT22;61885;53.560;9.940;2022-12-04T16:47:49;4.10;99.90
4673;DHT22;61885;53.560;9.940;2022-12-04T16:50:19;4.10;99.90
4673;DHT22;61885;53.560;9.940;2022-12-04T16:52:52;4.00;99.90
4673;DHT22;61885;53.560;9.940;2022-12-04T16:55:30;4.00;99.90
4673;DHT22;61885;53.560;9.940;2022-12-04T16:57:59;4.10;99.90
4673;DHT22;61885;53.560;9.940;2022-12-04T17:00:30;4.10;99.90
4673;DHT22;61885;53.560;9.940;2022-12-04T17:03:02;4.10;99.90
4673;DHT22;61885;53.560;9.940;2022-12-04T17:05:36;4.10;99.90
4673;DHT22;61885;53.560;9.940;2022-12-04T17:08:14;4.10;99.90
4673;DHT22;61885;53.560;9.940;2022-12-04T17:10:45;4.10;99.90